sensor_id;sensor_type;location;lat;lon;timestamp;P1;durP1;ratioP1;P2;durP2;ratioP2
70126;SDS011;57491;42.694;23.314;2023-02-01T00:00:00;7.38;;;4.35;;
70126;SDS011;57491;42.694;23.314;2023-02-01T00:02:27;5.63;;;3.58;;
70126;SDS011;57491;42.694;23.314;2023-02-01T00:04:54;6.75;;;4.47;;
70126;SDS011;57491;42.694;23.314;2023-02-01T00:07:21;4.97;;;4.30;;
70126;SDS011;57491;42.694;23.314;2023-02-01T00:09:50;7.28;;;4.68;;
70126;SDS011;57491;42.694;23.314;2023-02-01T00:12:16;6.10;;;4.75;;
70126;SDS011;57491;42.694;23.314;2023-02-01T00:14:44;6.47;;;4.70;;
70126;SDS011;57491;42.694;23.314;2023-02-01T00:17:13;6.75;;;4.07;;
70126;SDS011;57491;42.694;23.314;2023-02-01T00:19:40;7.47;;;5.28;;
70126;SDS011;57491;42.694;23.314;2023-02-01T00:22:07;6.50;;;4.72;;
70126;SDS011;57491;42.694;23.314;2023-02-01T00:24:34;6.68;;;4.70;;
70126;SDS011;57491;42.694;23.314;2023-02-01T00:27:03;7.95;;;4.22;;
70126;SDS011;57491;42.694;23.314;2023-02-01T00:29:30;5.82;;;4.43;;
70126;SDS011;57491;42.694;23.314;2023-02-01T00:31:57;7.70;;;5.03;;
70126;SDS011;57491;42.694;23.314;2023-02-01T00:34:24;6.20;;;4.07;;
70126;SDS011;57491;42.694;23.314;2023-02-01T00:36:51;5.60;;;4.50;;
70126;SDS011;57491;42.694;23.314;2023-02-01T00:39:18;5.95;;;4.30;;
70126;SDS011;57491;42.694;23.314;2023-02-01T00:41:45;10.60;;;4.55;;
70126;SDS011;57491;42.694;23.314;2023-02-01T00:44:13;7.60;;;4.10;;
70126;SDS011;57491;42.694;23.314;2023-02-01T00:46:40;5.13;;;4.20;;
70126;SDS011;57491;42.694;23.314;2023-02-01T00:49:08;5.85;;;3.92;;
70126;SDS011;57491;42.694;23.314;2023-02-01T00:51:35;4.60;;;3.90;;
70126;SDS011;57491;42.694;23.314;2023-02-01T00:54:02;7.15;;;4.40;;
70126;SDS011;57491;42.694;23.314;2023-02-01T00:56:29;5.00;;;4.30;;
70126;SDS011;57491;42.694;23.314;2023-02-01T00:58:56;5.97;;;4.17;;
70126;SDS011;57491;42.694;23.314;2023-02-01T01:01:25;7.25;;;5.10;;
70126;SDS011;57491;42.694;23.314;2023-02-01T01:03:54;9.60;;;4.75;;
70126;SDS011;57491;42.694;23.314;2023-02-01T01:06:23;5.55;;;3.80;;
70126;SDS011;57491;42.694;23.314;2023-02-01T01:08:52;5.78;;;3.97;;
70126;SDS011;57491;42.694;23.314;2023-02-01T01:13:49;6.07;;;3.67;;
70126;SDS011;57491;42.694;23.314;2023-02-01T01:16:17;9.63;;;4.63;;
70126;SDS011;57491;42.694;23.314;2023-02-01T01:18:46;4.28;;;3.00;;
70126;SDS011;57491;42.694;23.314;2023-02-01T01:21:14;5.32;;;3.20;;
70126;SDS011;57491;42.694;23.314;2023-02-01T01:23:42;5.85;;;3.58;;
70126;SDS011;57491;42.694;23.314;2023-02-01T01:26:11;5.88;;;3.72;;
70126;SDS011;57491;42.694;23.314;2023-02-01T01:28:40;5.07;;;3.70;;
70126;SDS011;57491;42.694;23.314;2023-02-01T01:31:08;4.53;;;3.58;;
70126;SDS011;57491;42.694;23.314;2023-02-01T01:33:35;5.35;;;3.60;;
70126;SDS011;57491;42.694;23.314;2023-02-01T01:36:05;4.78;;;3.40;;
70126;SDS011;57491;42.694;23.314;2023-02-01T01:38:35;5.45;;;3.35;;
70126;SDS011;57491;42.694;23.314;2023-02-01T01:41:02;4.27;;;3.20;;
70126;SDS011;57491;42.694;23.314;2023-02-01T01:43:44;4.43;;;2.83;;
70126;SDS011;57491;42.694;23.314;2023-02-01T01:46:15;3.92;;;2.70;;
70126;SDS011;57491;42.694;23.314;2023-02-01T01:48:42;4.47;;;2.70;;
70126;SDS011;57491;42.694;23.314;2023-02-01T01:51:11;6.68;;;3.05;;
70126;SDS011;57491;42.694;23.314;2023-02-01T01:53:42;5.60;;;3.00;;
70126;SDS011;57491;42.694;23.314;2023-02-01T01:56:12;4.60;;;3.08;;
70126;SDS011;57491;42.694;23.314;2023-02-01T01:58:40;3.95;;;2.50;;
70126;SDS011;57491;42.694;23.314;2023-02-01T02:01:07;3.85;;;2.60;;
70126;SDS011;57491;42.694;23.314;2023-02-01T02:03:35;6.50;;;3.23;;
70126;SDS011;57491;42.694;23.314;2023-02-01T02:06:08;3.45;;;3.15;;
70126;SDS011;57491;42.694;23.314;2023-02-01T02:08:44;5.30;;;2.97;;
70126;SDS011;57491;42.694;23.314;2023-02-01T02:11:12;4.47;;;3.00;;
70126;SDS011;57491;42.694;23.314;2023-02-01T02:13:44;8.43;;;3.78;;
70126;SDS011;57491;42.694;23.314;2023-02-01T02:16:17;6.18;;;3.25;;
70126;SDS011;57491;42.694;23.314;2023-02-01T02:18:54;7.35;;;2.67;;
70126;SDS011;57491;42.694;23.314;2023-02-01T02:21:38;3.80;;;2.85;;
70126;SDS011;57491;42.694;23.314;2023-02-01T02:24:27;6.53;;;3.40;;
70126;SDS011;57491;42.694;23.314;2023-02-01T02:27:11;4.88;;;3.20;;
70126;SDS011;57491;42.694;23.314;2023-02-01T02:36:00;5.82;;;3.67;;
70126;SDS011;57491;42.694;23.314;2023-02-01T02:38:32;5.15;;;3.47;;
70126;SDS011;57491;42.694;23.314;2023-02-01T02:41:12;5.43;;;3.38;;
70126;SDS011;57491;42.694;23.314;2023-02-01T02:44:05;6.13;;;3.60;;
70126;SDS011;57491;42.694;23.314;2023-02-01T02:46:57;5.13;;;2.97;;
70126;SDS011;57491;42.694;23.314;2023-02-01T02:49:49;5.50;;;3.13;;
70126;SDS011;57491;42.694;23.314;2023-02-01T02:52:36;3.80;;;3.15;;
70126;SDS011;57491;42.694;23.314;2023-02-01T02:55:28;5.35;;;2.95;;
70126;SDS011;57491;42.694;23.314;2023-02-01T02:57:57;4.60;;;2.72;;
70126;SDS011;57491;42.694;23.314;2023-02-01T03:00:42;4.88;;;3.08;;
70126;SDS011;57491;42.694;23.314;2023-02-01T03:03:28;5.72;;;3.60;;
70126;SDS011;57491;42.694;23.314;2023-02-01T03:06:14;6.15;;;4.45;;
70126;SDS011;57491;42.694;23.314;2023-02-01T03:08:43;6.70;;;4.30;;
70126;SDS011;57491;42.694;23.314;2023-02-01T03:11:13;5.18;;;4.30;;
70126;SDS011;57491;42.694;23.314;2023-02-01T03:13:43;7.90;;;4.13;;
70126;SDS011;57491;42.694;23.314;2023-02-01T03:16:14;3.90;;;3.28;;
70126;SDS011;57491;42.694;23.314;2023-02-01T03:18:52;4.47;;;3.05;;
70126;SDS011;57491;42.694;23.314;2023-02-01T03:21:27;6.40;;;3.35;;
70126;SDS011;57491;42.694;23.314;2023-02-01T03:23:59;4.50;;;3.17;;
70126;SDS011;57491;42.694;23.314;2023-02-01T03:26:30;6.53;;;3.95;;
70126;SDS011;57491;42.694;23.314;2023-02-01T03:29:00;4.57;;;3.50;;
70126;SDS011;57491;42.694;23.314;2023-02-01T03:31:32;5.90;;;3.45;;
70126;SDS011;57491;42.694;23.314;2023-02-01T03:33:59;5.13;;;3.38;;
70126;SDS011;57491;42.694;23.314;2023-02-01T03:36:29;4.53;;;3.23;;
70126;SDS011;57491;42.694;23.314;2023-02-01T03:38:59;5.00;;;2.72;;
70126;SDS011;57491;42.694;23.314;2023-02-01T03:41:33;4.80;;;2.80;;
70126;SDS011;57491;42.694;23.314;2023-02-01T03:44:06;4.35;;;2.67;;
70126;SDS011;57491;42.694;23.314;2023-02-01T03:46:39;3.25;;;2.55;;
70126;SDS011;57491;42.694;23.314;2023-02-01T03:49:10;3.20;;;2.83;;
70126;SDS011;57491;42.694;23.314;2023-02-01T03:51:44;5.45;;;2.85;;
70126;SDS011;57491;42.694;23.314;2023-02-01T03:54:11;5.45;;;3.33;;
70126;SDS011;57491;42.694;23.314;2023-02-01T03:56:42;7.22;;;2.85;;
70126;SDS011;57491;42.694;23.314;2023-02-01T03:59:11;6.00;;;2.90;;
70126;SDS011;57491;42.694;23.314;2023-02-01T04:01:38;7.18;;;3.60;;
70126;SDS011;57491;42.694;23.314;2023-02-01T04:04:06;4.47;;;2.70;;
70126;SDS011;57491;42.694;23.314;2023-02-01T04:06:34;6.05;;;3.00;;
70126;SDS011;57491;42.694;23.314;2023-02-01T04:09:03;5.82;;;3.05;;
70126;SDS011;57491;42.694;23.314;2023-02-01T04:11:30;4.60;;;2.95;;
70126;SDS011;57491;42.694;23.314;2023-02-01T04:13:57;7.03;;;3.28;;
70126;SDS011;57491;42.694;23.314;2023-02-01T04:16:29;6.40;;;3.45;;
70126;SDS011;57491;42.694;23.314;2023-02-01T04:18:57;7.40;;;3.65;;
70126;SDS011;57491;42.694;23.314;2023-02-01T04:21:24;4.72;;;3.20;;
70126;SDS011;57491;42.694;23.314;2023-02-01T04:23:51;8.90;;;3.88;;
70126;SDS011;57491;42.694;23.314;2023-02-01T04:26:20;8.05;;;3.67;;
70126;SDS011;57491;42.694;23.314;2023-02-01T04:28:47;5.85;;;3.50;;
70126;SDS011;57491;42.694;23.314;2023-02-01T04:31:15;8.80;;;3.90;;
70126;SDS011;57491;42.694;23.314;2023-02-01T04:33:42;6.70;;;3.97;;
70126;SDS011;57491;42.694;23.314;2023-02-01T04:36:09;6.95;;;4.13;;
70126;SDS011;57491;42.694;23.314;2023-02-01T04:38:36;10.35;;;4.40;;
70126;SDS011;57491;42.694;23.314;2023-02-01T04:41:04;7.97;;;4.47;;
70126;SDS011;57491;42.694;23.314;2023-02-01T04:43:32;8.05;;;4.57;;
70126;SDS011;57491;42.694;23.314;2023-02-01T04:45:59;7.55;;;4.35;;
70126;SDS011;57491;42.694;23.314;2023-02-01T04:48:26;8.57;;;4.13;;
70126;SDS011;57491;42.694;23.314;2023-02-01T04:50:53;10.90;;;4.43;;
70126;SDS011;57491;42.694;23.314;2023-02-01T04:53:20;6.53;;;4.80;;
70126;SDS011;57491;42.694;23.314;2023-02-01T04:55:47;10.52;;;5.88;;
70126;SDS011;57491;42.694;23.314;2023-02-01T04:58:16;12.68;;;5.13;;
70126;SDS011;57491;42.694;23.314;2023-02-01T05:00:44;8.98;;;4.93;;
70126;SDS011;57491;42.694;23.314;2023-02-01T05:03:11;6.55;;;4.28;;
70126;SDS011;57491;42.694;23.314;2023-02-01T05:05:38;7.88;;;4.45;;
70126;SDS011;57491;42.694;23.314;2023-02-01T05:08:05;8.63;;;4.85;;
70126;SDS011;57491;42.694;23.314;2023-02-01T05:10:32;8.63;;;4.75;;
70126;SDS011;57491;42.694;23.314;2023-02-01T05:12:59;8.05;;;4.32;;
70126;SDS011;57491;42.694;23.314;2023-02-01T05:15:45;6.20;;;3.70;;
70126;SDS011;57491;42.694;23.314;2023-02-01T05:18:12;6.95;;;3.80;;
70126;SDS011;57491;42.694;23.314;2023-02-01T05:20:39;9.60;;;4.60;;
70126;SDS011;57491;42.694;23.314;2023-02-01T05:23:06;6.18;;;3.38;;
70126;SDS011;57491;42.694;23.314;2023-02-01T05:25:33;6.07;;;3.80;;
70126;SDS011;57491;42.694;23.314;2023-02-01T05:28:00;6.65;;;4.47;;
70126;SDS011;57491;42.694;23.314;2023-02-01T05:30:27;9.80;;;4.68;;
70126;SDS011;57491;42.694;23.314;2023-02-01T05:32:56;6.97;;;4.73;;
70126;SDS011;57491;42.694;23.314;2023-02-01T05:35:23;6.22;;;4.82;;
70126;SDS011;57491;42.694;23.314;2023-02-01T05:37:50;8.93;;;4.88;;
70126;SDS011;57491;42.694;23.314;2023-02-01T05:40:17;9.52;;;4.53;;
70126;SDS011;57491;42.694;23.314;2023-02-01T05:42:45;6.43;;;4.37;;
70126;SDS011;57491;42.694;23.314;2023-02-01T05:45:12;7.93;;;5.30;;
70126;SDS011;57491;42.694;23.314;2023-02-01T05:47:39;10.48;;;5.30;;
70126;SDS011;57491;42.694;23.314;2023-02-01T05:50:08;11.87;;;5.57;;
70126;SDS011;57491;42.694;23.314;2023-02-01T05:52:35;10.43;;;6.28;;
70126;SDS011;57491;42.694;23.314;2023-02-01T05:55:02;7.13;;;4.75;;
70126;SDS011;57491;42.694;23.314;2023-02-01T05:57:30;6.95;;;4.40;;
70126;SDS011;57491;42.694;23.314;2023-02-01T05:59:57;8.30;;;4.50;;
70126;SDS011;57491;42.694;23.314;2023-02-01T06:02:24;8.50;;;3.92;;
70126;SDS011;57491;42.694;23.314;2023-02-01T06:04:51;11.70;;;5.05;;
70126;SDS011;57491;42.694;23.314;2023-02-01T06:07:19;13.00;;;5.23;;
70126;SDS011;57491;42.694;23.314;2023-02-01T06:09:47;7.32;;;5.05;;
70126;SDS011;57491;42.694;23.314;2023-02-01T06:12:14;9.70;;;4.95;;
70126;SDS011;57491;42.694;23.314;2023-02-01T06:14:41;11.23;;;4.95;;
70126;SDS011;57491;42.694;23.314;2023-02-01T06:17:08;11.50;;;5.05;;
70126;SDS011;57491;42.694;23.314;2023-02-01T06:19:35;18.77;;;5.75;;
70126;SDS011;57491;42.694;23.314;2023-02-01T06:22:02;13.50;;;5.32;;
70126;SDS011;57491;42.694;23.314;2023-02-01T06:24:33;15.80;;;6.30;;
70126;SDS011;57491;42.694;23.314;2023-02-01T06:27:00;14.75;;;4.85;;
70126;SDS011;57491;42.694;23.314;2023-02-01T06:29:27;13.65;;;4.95;;
70126;SDS011;57491;42.694;23.314;2023-02-01T06:31:54;8.48;;;4.38;;
70126;SDS011;57491;42.694;23.314;2023-02-01T06:34:21;7.82;;;4.75;;
70126;SDS011;57491;42.694;23.314;2023-02-01T06:39:16;10.85;;;4.43;;
70126;SDS011;57491;42.694;23.314;2023-02-01T06:41:46;7.43;;;3.33;;
70126;SDS011;57491;42.694;23.314;2023-02-01T06:44:14;8.32;;;3.97;;
70126;SDS011;57491;42.694;23.314;2023-02-01T06:46:41;7.63;;;4.27;;
70126;SDS011;57491;42.694;23.314;2023-02-01T06:49:08;8.98;;;4.55;;
70126;SDS011;57491;42.694;23.314;2023-02-01T06:51:35;5.70;;;3.28;;
70126;SDS011;57491;42.694;23.314;2023-02-01T06:54:02;11.65;;;4.97;;
70126;SDS011;57491;42.694;23.314;2023-02-01T06:56:29;14.30;;;4.85;;
70126;SDS011;57491;42.694;23.314;2023-02-01T06:58:59;11.98;;;5.00;;
70126;SDS011;57491;42.694;23.314;2023-02-01T07:01:26;8.75;;;4.63;;
70126;SDS011;57491;42.694;23.314;2023-02-01T07:03:53;13.05;;;5.38;;
70126;SDS011;57491;42.694;23.314;2023-02-01T07:06:21;9.67;;;4.47;;
70126;SDS011;57491;42.694;23.314;2023-02-01T07:08:48;12.95;;;4.75;;
70126;SDS011;57491;42.694;23.314;2023-02-01T07:11:16;13.10;;;5.30;;
70126;SDS011;57491;42.694;23.314;2023-02-01T07:13:44;10.35;;;4.95;;
70126;SDS011;57491;42.694;23.314;2023-02-01T07:16:14;7.63;;;5.17;;
70126;SDS011;57491;42.694;23.314;2023-02-01T07:18:43;6.50;;;3.88;;
70126;SDS011;57491;42.694;23.314;2023-02-01T07:21:10;8.50;;;4.43;;
70126;SDS011;57491;42.694;23.314;2023-02-01T07:23:38;8.97;;;3.93;;
70126;SDS011;57491;42.694;23.314;2023-02-01T07:26:06;5.63;;;3.25;;
70126;SDS011;57491;42.694;23.314;2023-02-01T07:28:34;8.88;;;3.60;;
70126;SDS011;57491;42.694;23.314;2023-02-01T07:31:03;8.27;;;3.80;;
70126;SDS011;57491;42.694;23.314;2023-02-01T07:33:32;4.97;;;3.47;;
70126;SDS011;57491;42.694;23.314;2023-02-01T07:36:00;9.75;;;3.67;;
70126;SDS011;57491;42.694;23.314;2023-02-01T07:38:28;11.90;;;4.50;;
70126;SDS011;57491;42.694;23.314;2023-02-01T07:40:56;10.47;;;3.33;;
70126;SDS011;57491;42.694;23.314;2023-02-01T07:43:25;9.15;;;3.45;;
70126;SDS011;57491;42.694;23.314;2023-02-01T07:45:52;8.47;;;3.90;;
70126;SDS011;57491;42.694;23.314;2023-02-01T07:48:20;12.27;;;4.38;;
70126;SDS011;57491;42.694;23.314;2023-02-01T07:50:56;8.73;;;4.28;;
70126;SDS011;57491;42.694;23.314;2023-02-01T07:53:23;9.80;;;4.30;;
70126;SDS011;57491;42.694;23.314;2023-02-01T07:55:50;6.65;;;3.45;;
70126;SDS011;57491;42.694;23.314;2023-02-01T07:58:17;8.48;;;3.90;;
70126;SDS011;57491;42.694;23.314;2023-02-01T08:00:44;6.78;;;4.22;;
70126;SDS011;57491;42.694;23.314;2023-02-01T08:03:43;12.77;;;4.10;;
70126;SDS011;57491;42.694;23.314;2023-02-01T08:06:12;10.83;;;4.47;;
70126;SDS011;57491;42.694;23.314;2023-02-01T08:08:39;7.93;;;5.00;;
70126;SDS011;57491;42.694;23.314;2023-02-01T08:11:06;12.02;;;4.80;;
70126;SDS011;57491;42.694;23.314;2023-02-01T08:13:33;10.93;;;5.68;;
70126;SDS011;57491;42.694;23.314;2023-02-01T08:16:02;12.57;;;4.07;;
70126;SDS011;57491;42.694;23.314;2023-02-01T08:18:30;5.38;;;3.08;;
70126;SDS011;57491;42.694;23.314;2023-02-01T08:21:02;6.80;;;3.72;;
70126;SDS011;57491;42.694;23.314;2023-02-01T08:23:31;7.57;;;3.38;;
70126;SDS011;57491;42.694;23.314;2023-02-01T08:26:06;6.80;;;3.70;;
70126;SDS011;57491;42.694;23.314;2023-02-01T08:28:35;7.97;;;3.63;;
70126;SDS011;57491;42.694;23.314;2023-02-01T08:31:06;10.98;;;5.53;;
70126;SDS011;57491;42.694;23.314;2023-02-01T08:33:34;11.73;;;4.35;;
70126;SDS011;57491;42.694;23.314;2023-02-01T08:36:02;14.05;;;5.57;;
70126;SDS011;57491;42.694;23.314;2023-02-01T08:38:32;13.23;;;5.00;;
70126;SDS011;57491;42.694;23.314;2023-02-01T08:41:03;11.80;;;4.68;;
70126;SDS011;57491;42.694;23.314;2023-02-01T08:43:31;13.40;;;5.90;;
70126;SDS011;57491;42.694;23.314;2023-02-01T08:45:58;13.80;;;6.00;;
70126;SDS011;57491;42.694;23.314;2023-02-01T08:48:25;16.02;;;5.03;;
70126;SDS011;57491;42.694;23.314;2023-02-01T08:50:52;8.23;;;3.30;;
70126;SDS011;57491;42.694;23.314;2023-02-01T08:53:19;7.47;;;3.65;;
70126;SDS011;57491;42.694;23.314;2023-02-01T08:55:48;7.60;;;4.23;;
70126;SDS011;57491;42.694;23.314;2023-02-01T08:58:15;11.85;;;4.80;;
70126;SDS011;57491;42.694;23.314;2023-02-01T09:00:42;15.35;;;5.50;;
70126;SDS011;57491;42.694;23.314;2023-02-01T09:03:10;7.28;;;3.95;;
70126;SDS011;57491;42.694;23.314;2023-02-01T09:05:38;6.10;;;2.80;;
70126;SDS011;57491;42.694;23.314;2023-02-01T09:08:05;9.00;;;3.00;;
70126;SDS011;57491;42.694;23.314;2023-02-01T09:10:33;5.53;;;2.58;;
70126;SDS011;57491;42.694;23.314;2023-02-01T09:13:02;7.32;;;2.78;;
70126;SDS011;57491;42.694;23.314;2023-02-01T09:15:29;3.97;;;2.30;;
70126;SDS011;57491;42.694;23.314;2023-02-01T09:17:56;6.88;;;3.40;;
70126;SDS011;57491;42.694;23.314;2023-02-01T09:20:23;7.90;;;3.05;;
70126;SDS011;57491;42.694;23.314;2023-02-01T09:22:50;6.15;;;3.33;;
70126;SDS011;57491;42.694;23.314;2023-02-01T09:25:18;9.67;;;2.73;;
70126;SDS011;57491;42.694;23.314;2023-02-01T09:27:45;8.70;;;2.50;;
70126;SDS011;57491;42.694;23.314;2023-02-01T09:30:14;7.13;;;2.87;;
70126;SDS011;57491;42.694;23.314;2023-02-01T09:32:41;8.30;;;2.63;;
70126;SDS011;57491;42.694;23.314;2023-02-01T09:35:08;5.97;;;2.28;;
70126;SDS011;57491;42.694;23.314;2023-02-01T09:37:35;4.97;;;1.98;;
70126;SDS011;57491;42.694;23.314;2023-02-01T09:40:03;3.13;;;2.08;;
70126;SDS011;57491;42.694;23.314;2023-02-01T09:45:16;4.75;;;2.20;;
70126;SDS011;57491;42.694;23.314;2023-02-01T09:47:50;4.57;;;2.00;;
70126;SDS011;57491;42.694;23.314;2023-02-01T09:50:21;4.30;;;2.10;;
70126;SDS011;57491;42.694;23.314;2023-02-01T09:52:55;4.45;;;2.78;;
70126;SDS011;57491;42.694;23.314;2023-02-01T09:55:30;5.38;;;2.40;;
70126;SDS011;57491;42.694;23.314;2023-02-01T09:58:04;4.90;;;2.03;;
70126;SDS011;57491;42.694;23.314;2023-02-01T10:00:36;7.75;;;2.15;;
70126;SDS011;57491;42.694;23.314;2023-02-01T10:03:07;5.90;;;2.92;;
70126;SDS011;57491;42.694;23.314;2023-02-01T10:05:44;6.53;;;3.00;;
70126;SDS011;57491;42.694;23.314;2023-02-01T10:08:25;4.30;;;2.15;;
70126;SDS011;57491;42.694;23.314;2023-02-01T10:11:03;5.25;;;2.60;;
70126;SDS011;57491;42.694;23.314;2023-02-01T10:13:44;6.80;;;3.08;;
70126;SDS011;57491;42.694;23.314;2023-02-01T10:16:25;8.88;;;3.03;;
70126;SDS011;57491;42.694;23.314;2023-02-01T10:19:23;8.70;;;3.25;;
70126;SDS011;57491;42.694;23.314;2023-02-01T10:22:00;8.63;;;3.78;;
70126;SDS011;57491;42.694;23.314;2023-02-01T10:24:34;8.93;;;3.90;;
70126;SDS011;57491;42.694;23.314;2023-02-01T10:27:13;6.00;;;3.72;;
70126;SDS011;57491;42.694;23.314;2023-02-01T10:29:44;4.15;;;2.97;;
70126;SDS011;57491;42.694;23.314;2023-02-01T10:32:16;5.00;;;3.20;;
70126;SDS011;57491;42.694;23.314;2023-02-01T10:34:46;5.97;;;3.17;;
70126;SDS011;57491;42.694;23.314;2023-02-01T10:37:22;9.95;;;4.22;;
70126;SDS011;57491;42.694;23.314;2023-02-01T10:39:53;9.82;;;3.47;;
70126;SDS011;57491;42.694;23.314;2023-02-01T10:42:23;4.00;;;3.10;;
70126;SDS011;57491;42.694;23.314;2023-02-01T10:44:52;5.55;;;2.67;;
70126;SDS011;57491;42.694;23.314;2023-02-01T10:47:24;4.25;;;2.45;;
70126;SDS011;57491;42.694;23.314;2023-02-01T10:49:54;3.92;;;2.65;;
70126;SDS011;57491;42.694;23.314;2023-02-01T10:52:27;5.95;;;2.85;;
70126;SDS011;57491;42.694;23.314;2023-02-01T10:57:55;7.38;;;2.92;;
70126;SDS011;57491;42.694;23.314;2023-02-01T11:00:23;6.57;;;3.20;;
70126;SDS011;57491;42.694;23.314;2023-02-01T11:02:53;4.28;;;2.35;;
70126;SDS011;57491;42.694;23.314;2023-02-01T11:05:21;5.28;;;2.38;;
70126;SDS011;57491;42.694;23.314;2023-02-01T11:07:49;4.15;;;3.10;;
70126;SDS011;57491;42.694;23.314;2023-02-01T11:10:33;4.45;;;3.20;;
70126;SDS011;57491;42.694;23.314;2023-02-01T11:13:02;8.75;;;4.70;;
70126;SDS011;57491;42.694;23.314;2023-02-01T11:15:30;5.05;;;2.65;;
70126;SDS011;57491;42.694;23.314;2023-02-01T11:18:07;4.60;;;2.47;;
70126;SDS011;57491;42.694;23.314;2023-02-01T11:20:42;4.95;;;2.03;;
70126;SDS011;57491;42.694;23.314;2023-02-01T11:23:13;2.75;;;2.08;;
70126;SDS011;57491;42.694;23.314;2023-02-01T11:25:47;3.65;;;2.10;;
70126;SDS011;57491;42.694;23.314;2023-02-01T11:28:15;6.10;;;3.20;;
70126;SDS011;57491;42.694;23.314;2023-02-01T11:30:44;6.05;;;2.58;;
70126;SDS011;57491;42.694;23.314;2023-02-01T11:33:15;7.20;;;2.53;;
70126;SDS011;57491;42.694;23.314;2023-02-01T11:35:45;4.32;;;2.72;;
70126;SDS011;57491;42.694;23.314;2023-02-01T11:38:20;4.13;;;2.53;;
70126;SDS011;57491;42.694;23.314;2023-02-01T11:40:48;6.28;;;2.30;;
70126;SDS011;57491;42.694;23.314;2023-02-01T11:43:17;2.53;;;1.98;;
70126;SDS011;57491;42.694;23.314;2023-02-01T11:45:54;4.10;;;1.88;;
70126;SDS011;57491;42.694;23.314;2023-02-01T11:48:25;3.53;;;2.15;;
70126;SDS011;57491;42.694;23.314;2023-02-01T11:50:57;4.15;;;2.22;;
70126;SDS011;57491;42.694;23.314;2023-02-01T11:53:40;4.20;;;2.20;;
70126;SDS011;57491;42.694;23.314;2023-02-01T11:56:22;4.47;;;2.30;;
70126;SDS011;57491;42.694;23.314;2023-02-01T11:59:01;5.18;;;2.17;;
70126;SDS011;57491;42.694;23.314;2023-02-01T12:01:48;2.72;;;2.28;;
70126;SDS011;57491;42.694;23.314;2023-02-01T12:07:46;7.13;;;2.40;;
70126;SDS011;57491;42.694;23.314;2023-02-01T12:10:25;4.90;;;2.22;;
70126;SDS011;57491;42.694;23.314;2023-02-01T12:13:06;4.95;;;2.53;;
70126;SDS011;57491;42.694;23.314;2023-02-01T12:15:46;6.25;;;2.72;;
70126;SDS011;57491;42.694;23.314;2023-02-01T12:21:40;12.70;;;5.65;;
70126;SDS011;57491;42.694;23.314;2023-02-01T12:24:25;6.30;;;2.80;;
70126;SDS011;57491;42.694;23.314;2023-02-01T12:27:14;4.35;;;2.13;;
70126;SDS011;57491;42.694;23.314;2023-02-01T12:30:02;3.75;;;1.95;;
70126;SDS011;57491;42.694;23.314;2023-02-01T12:32:51;3.22;;;1.90;;
70126;SDS011;57491;42.694;23.314;2023-02-01T12:35:32;3.63;;;1.40;;
70126;SDS011;57491;42.694;23.314;2023-02-01T12:38:26;5.28;;;2.20;;
70126;SDS011;57491;42.694;23.314;2023-02-01T12:41:10;3.45;;;2.08;;
70126;SDS011;57491;42.694;23.314;2023-02-01T12:43:49;2.10;;;1.58;;
70126;SDS011;57491;42.694;23.314;2023-02-01T12:46:21;2.75;;;1.65;;
70126;SDS011;57491;42.694;23.314;2023-02-01T12:48:55;3.40;;;1.70;;
70126;SDS011;57491;42.694;23.314;2023-02-01T12:51:25;2.50;;;1.75;;
70126;SDS011;57491;42.694;23.314;2023-02-01T12:53:57;3.72;;;1.90;;
70126;SDS011;57491;42.694;23.314;2023-02-01T12:56:30;2.10;;;1.85;;
70126;SDS011;57491;42.694;23.314;2023-02-01T12:59:04;2.85;;;1.85;;
70126;SDS011;57491;42.694;23.314;2023-02-01T13:01:39;5.25;;;3.03;;
70126;SDS011;57491;42.694;23.314;2023-02-01T13:04:10;3.85;;;2.40;;
70126;SDS011;57491;42.694;23.314;2023-02-01T13:06:43;4.57;;;2.80;;
70126;SDS011;57491;42.694;23.314;2023-02-01T13:09:21;2.85;;;1.50;;
70126;SDS011;57491;42.694;23.314;2023-02-01T13:11:53;2.45;;;1.90;;
70126;SDS011;57491;42.694;23.314;2023-02-01T13:14:36;2.55;;;1.73;;
70126;SDS011;57491;42.694;23.314;2023-02-01T13:17:11;2.47;;;1.88;;
70126;SDS011;57491;42.694;23.314;2023-02-01T13:19:42;2.95;;;1.85;;
70126;SDS011;57491;42.694;23.314;2023-02-01T13:22:14;2.20;;;1.75;;
70126;SDS011;57491;42.694;23.314;2023-02-01T13:24:48;3.58;;;2.17;;
70126;SDS011;57491;42.694;23.314;2023-02-01T13:27:19;1.90;;;1.50;;
70126;SDS011;57491;42.694;23.314;2023-02-01T13:29:48;2.25;;;1.70;;
70126;SDS011;57491;42.694;23.314;2023-02-01T13:35:38;7.72;;;2.28;;
70126;SDS011;57491;42.694;23.314;2023-02-01T13:41:10;8.23;;;2.40;;
70126;SDS011;57491;42.694;23.314;2023-02-01T13:43:54;3.83;;;1.70;;
70126;SDS011;57491;42.694;23.314;2023-02-01T13:46:24;8.82;;;1.95;;
70126;SDS011;57491;42.694;23.314;2023-02-01T13:48:52;2.33;;;1.30;;
70126;SDS011;57491;42.694;23.314;2023-02-01T13:51:36;3.03;;;1.55;;
70126;SDS011;57491;42.694;23.314;2023-02-01T13:54:18;2.78;;;1.80;;
70126;SDS011;57491;42.694;23.314;2023-02-01T13:56:53;1.95;;;1.60;;
70126;SDS011;57491;42.694;23.314;2023-02-01T13:59:47;3.15;;;1.92;;
70126;SDS011;57491;42.694;23.314;2023-02-01T14:09:05;4.65;;;2.63;;
70126;SDS011;57491;42.694;23.314;2023-02-01T14:11:46;3.75;;;2.33;;
70126;SDS011;57491;42.694;23.314;2023-02-01T14:28:56;3.28;;;1.88;;
70126;SDS011;57491;42.694;23.314;2023-02-01T14:31:39;4.68;;;2.40;;
70126;SDS011;57491;42.694;23.314;2023-02-01T14:34:20;2.78;;;1.90;;
70126;SDS011;57491;42.694;23.314;2023-02-01T14:36:52;9.45;;;2.42;;
70126;SDS011;57491;42.694;23.314;2023-02-01T14:39:25;3.38;;;2.25;;
70126;SDS011;57491;42.694;23.314;2023-02-01T14:42:22;4.60;;;3.25;;
70126;SDS011;57491;42.694;23.314;2023-02-01T14:44:52;9.25;;;4.25;;
70126;SDS011;57491;42.694;23.314;2023-02-01T14:47:32;5.30;;;3.30;;
70126;SDS011;57491;42.694;23.314;2023-02-01T14:50:07;7.40;;;3.38;;
70126;SDS011;57491;42.694;23.314;2023-02-01T14:52:40;8.77;;;3.75;;
70126;SDS011;57491;42.694;23.314;2023-02-01T14:55:14;5.82;;;2.80;;
70126;SDS011;57491;42.694;23.314;2023-02-01T14:57:44;3.47;;;2.00;;
70126;SDS011;57491;42.694;23.314;2023-02-01T15:00:20;5.50;;;3.08;;
70126;SDS011;57491;42.694;23.314;2023-02-01T15:02:51;5.53;;;2.95;;
70126;SDS011;57491;42.694;23.314;2023-02-01T15:05:28;7.35;;;3.60;;
70126;SDS011;57491;42.694;23.314;2023-02-01T15:08:04;6.43;;;3.63;;
70126;SDS011;57491;42.694;23.314;2023-02-01T15:10:40;10.05;;;4.15;;
70126;SDS011;57491;42.694;23.314;2023-02-01T15:13:20;9.65;;;3.85;;
70126;SDS011;57491;42.694;23.314;2023-02-01T15:16:01;7.85;;;4.05;;
70126;SDS011;57491;42.694;23.314;2023-02-01T15:18:37;11.15;;;5.18;;
70126;SDS011;57491;42.694;23.314;2023-02-01T15:21:06;7.47;;;4.90;;
70126;SDS011;57491;42.694;23.314;2023-02-01T15:23:43;10.23;;;4.57;;
70126;SDS011;57491;42.694;23.314;2023-02-01T15:28:57;5.80;;;3.60;;
70126;SDS011;57491;42.694;23.314;2023-02-01T15:31:31;7.78;;;4.15;;
70126;SDS011;57491;42.694;23.314;2023-02-01T15:34:01;8.40;;;4.35;;
70126;SDS011;57491;42.694;23.314;2023-02-01T15:36:29;9.63;;;3.60;;
70126;SDS011;57491;42.694;23.314;2023-02-01T15:41:45;8.13;;;4.78;;
70126;SDS011;57491;42.694;23.314;2023-02-01T15:47:07;5.95;;;3.65;;
70126;SDS011;57491;42.694;23.314;2023-02-01T15:49:41;9.07;;;4.75;;
70126;SDS011;57491;42.694;23.314;2023-02-01T15:52:16;7.32;;;5.03;;
70126;SDS011;57491;42.694;23.314;2023-02-01T15:54:49;9.33;;;3.57;;
70126;SDS011;57491;42.694;23.314;2023-02-01T15:57:19;6.15;;;3.65;;